Airfield :
LOGIN :

Register | Disclaimer

   EN    FR    IT 

 










Legend :    VFR   Marginal VFR   IFR   Intensive IFR   Very Intensive IFR
Visi :
Ceiling :
>= 8 km
>= 3000ft
5 to 8 km
1000 to 3000 ft
1500m to 5 km
500 to 1000 ft
800 to 1500m
200 to 500 ft
< 800m
< 200 ft
Symbols :   Thunderstorms  Fog  Heavy snow  Heavy precipitations  Wind > 20 kt
SIGMETs :     Misc.  Thunderstorms  Icing  Turbulence  Mountain Waves  Volcanic Ashes






- Airport Elevation : 38 ft
- IATA code : BOH


EGHH - Bournemouth

CURRENT METAR :
  • 150850Z VRB03KT 9000 FEW012 22/16 Q1003

EXPIRED METARs :
  • 150820Z VRB03KT 9000 FEW006 21/16 Q1002
  • 150750Z 21004KT 170V280 8000 FEW005 SCT009 20/16 Q1002
  • 150720Z 22002KT 6000 FEW006 SCT008 18/16 Q1002
  • 150650Z 22005KT 180V250 6000 BKN007 18/16 Q1002
  • 150620Z 20006KT 6000 BKN005 18/17 Q1002

TAF TAF EGHH
Valid from the 15 at 09:00 until the 15 at 18:00 UTC


150757Z 1509/1518 20005KT 8000 BKN008
BECMG 1509/1512 CAVOK
BECMG 1515/1518 26010KT
PROB30
TEMPO 1515/1518 7000 SHRA
ATIS : +44 1202 364 151
Met : +44 1202 364 158 (TAF)



MET'MAP, your aeronautical weather chart ! - Copyright ORBIFLY December 2007 - Disclaimer

ORBIFLY MET'MAP TEAM :

Programming & Development : Alexandra Zaïnal
Original concept : Baudouin d'Aumeries
Technical & hardware support : Manuel Goepfert
Assistance : Marc-Olivier Méhu




SOURCES & CREDITS :

   NOAA